sensor_id;sensor_type;location;lat;lon;timestamp;temperature;humidity
10062;DHT22;5070;52.382;5.270;2023-02-28T00:00:05;16.70;66.50
10062;DHT22;5070;52.382;5.270;2023-02-28T00:02:36;16.70;66.60
10062;DHT22;5070;52.382;5.270;2023-02-28T00:05:05;16.70;67.30
10062;DHT22;5070;52.382;5.270;2023-02-28T00:07:35;16.70;66.50
10062;DHT22;5070;52.382;5.270;2023-02-28T00:10:05;16.70;66.60
10062;DHT22;5070;52.382;5.270;2023-02-28T00:12:34;16.70;66.60
10062;DHT22;5070;52.382;5.270;2023-02-28T00:15:03;16.70;67.40
10062;DHT22;5070;52.382;5.270;2023-02-28T00:17:32;16.70;66.60
10062;DHT22;5070;52.382;5.270;2023-02-28T00:20:00;16.70;67.40
10062;DHT22;5070;52.382;5.270;2023-02-28T00:22:42;16.70;66.70
10062;DHT22;5070;52.382;5.270;2023-02-28T00:25:12;16.70;66.70
10062;DHT22;5070;52.382;5.270;2023-02-28T00:27:41;16.70;66.80
10062;DHT22;5070;52.382;5.270;2023-02-28T00:30:12;16.60;66.80
10062;DHT22;5070;52.382;5.270;2023-02-28T00:32:40;16.60;66.80
10062;DHT22;5070;52.382;5.270;2023-02-28T00:35:09;16.60;66.80
10062;DHT22;5070;52.382;5.270;2023-02-28T00:37:37;16.60;67.00
10062;DHT22;5070;52.382;5.270;2023-02-28T00:40:10;16.60;66.90
10062;DHT22;5070;52.382;5.270;2023-02-28T00:42:39;16.60;66.80
10062;DHT22;5070;52.382;5.270;2023-02-28T00:45:07;16.60;66.70
10062;DHT22;5070;52.382;5.270;2023-02-28T00:47:37;16.70;66.70
10062;DHT22;5070;52.382;5.270;2023-02-28T00:50:07;16.70;66.60
10062;DHT22;5070;52.382;5.270;2023-02-28T00:52:36;16.70;66.60
10062;DHT22;5070;52.382;5.270;2023-02-28T00:55:04;16.70;66.50
10062;DHT22;5070;52.382;5.270;2023-02-28T00:57:34;16.70;66.50
10062;DHT22;5070;52.382;5.270;2023-02-28T01:00:04;16.70;66.40
10062;DHT22;5070;52.382;5.270;2023-02-28T01:02:32;16.70;66.40
10062;DHT22;5070;52.382;5.270;2023-02-28T01:05:00;16.70;66.30
10062;DHT22;5070;52.382;5.270;2023-02-28T01:07:29;16.70;66.30
10062;DHT22;5070;52.382;5.270;2023-02-28T01:09:57;16.70;66.50
10062;DHT22;5070;52.382;5.270;2023-02-28T01:12:25;16.70;66.50
10062;DHT22;5070;52.382;5.270;2023-02-28T01:14:57;16.70;66.50
10062;DHT22;5070;52.382;5.270;2023-02-28T01:17:25;16.70;67.30
10062;DHT22;5070;52.382;5.270;2023-02-28T01:19:53;16.70;66.50
10062;DHT22;5070;52.382;5.270;2023-02-28T01:22:24;16.70;66.60
10062;DHT22;5070;52.382;5.270;2023-02-28T01:24:52;16.70;66.60
10062;DHT22;5070;52.382;5.270;2023-02-28T01:27:20;16.70;66.70
10062;DHT22;5070;52.382;5.270;2023-02-28T01:29:50;16.70;66.70
10062;DHT22;5070;52.382;5.270;2023-02-28T01:32:20;16.70;66.70
10062;DHT22;5070;52.382;5.270;2023-02-28T01:34:49;16.70;66.70
10062;DHT22;5070;52.382;5.270;2023-02-28T01:37:17;16.70;66.80
10062;DHT22;5070;52.382;5.270;2023-02-28T01:39:45;16.70;66.70
10062;DHT22;5070;52.382;5.270;2023-02-28T01:42:13;16.70;66.80
10062;DHT22;5070;52.382;5.270;2023-02-28T01:45:19;16.70;66.70
10062;DHT22;5070;52.382;5.270;2023-02-28T01:47:53;16.70;66.70
10062;DHT22;5070;52.382;5.270;2023-02-28T01:50:26;16.70;66.60
10062;DHT22;5070;52.382;5.270;2023-02-28T01:52:57;16.70;66.60
10062;DHT22;5070;52.382;5.270;2023-02-28T01:55:27;16.70;67.40
10062;DHT22;5070;52.382;5.270;2023-02-28T01:58:00;16.70;66.60
10062;DHT22;5070;52.382;5.270;2023-02-28T02:00:30;16.70;66.60
10062;DHT22;5070;52.382;5.270;2023-02-28T02:03:05;16.80;66.60
10062;DHT22;5070;52.382;5.270;2023-02-28T02:05:36;16.80;66.50
10062;DHT22;5070;52.382;5.270;2023-02-28T02:08:09;16.80;66.40
10062;DHT22;5070;52.382;5.270;2023-02-28T02:10:41;16.80;66.60
10062;DHT22;5070;52.382;5.270;2023-02-28T02:13:24;16.80;66.50
10062;DHT22;5070;52.382;5.270;2023-02-28T02:16:00;16.80;66.50
10062;DHT22;5070;52.382;5.270;2023-02-28T02:18:36;16.70;66.50
10062;DHT22;5070;52.382;5.270;2023-02-28T02:21:47;16.70;66.50
10062;DHT22;5070;52.382;5.270;2023-02-28T02:24:48;16.70;66.50
10062;DHT22;5070;52.382;5.270;2023-02-28T02:27:29;16.70;66.60
10062;DHT22;5070;52.382;5.270;2023-02-28T02:30:21;16.70;66.70
10062;DHT22;5070;52.382;5.270;2023-02-28T02:33:15;16.70;66.60
10062;DHT22;5070;52.382;5.270;2023-02-28T02:35:53;16.70;66.60
10062;DHT22;5070;52.382;5.270;2023-02-28T02:38:31;16.70;66.70
10062;DHT22;5070;52.382;5.270;2023-02-28T02:41:08;16.70;66.70
10062;DHT22;5070;52.382;5.270;2023-02-28T02:43:44;16.70;66.80
10062;DHT22;5070;52.382;5.270;2023-02-28T02:46:17;16.70;66.80
10062;DHT22;5070;52.382;5.270;2023-02-28T02:48:46;16.70;66.60
10062;DHT22;5070;52.382;5.270;2023-02-28T02:51:20;16.70;66.60
10062;DHT22;5070;52.382;5.270;2023-02-28T02:53:52;16.70;66.60
10062;DHT22;5070;52.382;5.270;2023-02-28T02:56:26;16.70;66.50
10062;DHT22;5070;52.382;5.270;2023-02-28T02:58:58;16.70;66.40
10062;DHT22;5070;52.382;5.270;2023-02-28T03:01:29;16.70;66.40
10062;DHT22;5070;52.382;5.270;2023-02-28T03:04:01;16.70;66.40
10062;DHT22;5070;52.382;5.270;2023-02-28T03:06:32;16.80;66.50
10062;DHT22;5070;52.382;5.270;2023-02-28T03:09:00;16.80;66.50
10062;DHT22;5070;52.382;5.270;2023-02-28T03:11:28;16.80;66.40
10062;DHT22;5070;52.382;5.270;2023-02-28T03:14:19;16.80;66.40
10062;DHT22;5070;52.382;5.270;2023-02-28T03:17:09;16.80;66.40
10062;DHT22;5070;52.382;5.270;2023-02-28T03:19:59;16.80;66.50
10062;DHT22;5070;52.382;5.270;2023-02-28T03:22:46;16.70;66.50
10062;DHT22;5070;52.382;5.270;2023-02-28T03:25:23;16.70;65.80
10062;DHT22;5070;52.382;5.270;2023-02-28T03:28:00;16.70;66.50
10062;DHT22;5070;52.382;5.270;2023-02-28T03:30:35;16.70;66.50
10062;DHT22;5070;52.382;5.270;2023-02-28T03:33:08;16.70;66.50
10062;DHT22;5070;52.382;5.270;2023-02-28T03:35:39;16.70;66.50
10062;DHT22;5070;52.382;5.270;2023-02-28T03:38:12;16.70;66.60
10062;DHT22;5070;52.382;5.270;2023-02-28T03:40:46;16.70;66.60
10062;DHT22;5070;52.382;5.270;2023-02-28T03:43:19;16.70;66.60
10062;DHT22;5070;52.382;5.270;2023-02-28T03:45:51;16.70;66.70
10062;DHT22;5070;52.382;5.270;2023-02-28T03:48:23;16.70;66.70
10062;DHT22;5070;52.382;5.270;2023-02-28T03:50:55;16.70;66.70
10062;DHT22;5070;52.382;5.270;2023-02-28T03:53:28;16.70;66.70
10062;DHT22;5070;52.382;5.270;2023-02-28T03:56:01;16.70;66.70
10062;DHT22;5070;52.382;5.270;2023-02-28T03:58:35;16.70;66.60
10062;DHT22;5070;52.382;5.270;2023-02-28T04:01:14;16.70;66.60
10062;DHT22;5070;52.382;5.270;2023-02-28T04:03:43;16.70;66.50
10062;DHT22;5070;52.382;5.270;2023-02-28T04:06:15;16.70;66.50
10062;DHT22;5070;52.382;5.270;2023-02-28T04:08:45;16.70;66.50
10062;DHT22;5070;52.382;5.270;2023-02-28T04:11:22;16.70;66.30
10062;DHT22;5070;52.382;5.270;2023-02-28T04:13:50;16.80;66.50
10062;DHT22;5070;52.382;5.270;2023-02-28T04:16:18;16.80;66.40
10062;DHT22;5070;52.382;5.270;2023-02-28T04:19:01;16.80;66.50
10062;DHT22;5070;52.382;5.270;2023-02-28T04:21:31;16.80;66.40
10062;DHT22;5070;52.382;5.270;2023-02-28T04:24:01;16.80;66.50
10062;DHT22;5070;52.382;5.270;2023-02-28T04:26:29;16.80;66.50
10062;DHT22;5070;52.382;5.270;2023-02-28T04:28:58;16.80;66.50
10062;DHT22;5070;52.382;5.270;2023-02-28T04:31:26;16.80;66.40
10062;DHT22;5070;52.382;5.270;2023-02-28T04:33:54;16.80;66.40
10062;DHT22;5070;52.382;5.270;2023-02-28T04:36:23;16.70;66.40
10062;DHT22;5070;52.382;5.270;2023-02-28T04:38:51;16.70;66.30
10062;DHT22;5070;52.382;5.270;2023-02-28T04:41:21;16.70;66.60
10062;DHT22;5070;52.382;5.270;2023-02-28T04:43:50;16.70;66.50
10062;DHT22;5070;52.382;5.270;2023-02-28T04:46:19;16.70;66.50
10062;DHT22;5070;52.382;5.270;2023-02-28T04:48:47;16.70;66.50
10062;DHT22;5070;52.382;5.270;2023-02-28T04:51:17;16.70;66.60
10062;DHT22;5070;52.382;5.270;2023-02-28T04:53:45;16.70;66.60
10062;DHT22;5070;52.382;5.270;2023-02-28T04:56:16;16.70;66.60
10062;DHT22;5070;52.382;5.270;2023-02-28T04:58:45;16.70;66.60
10062;DHT22;5070;52.382;5.270;2023-02-28T05:01:19;16.70;66.70
10062;DHT22;5070;52.382;5.270;2023-02-28T05:03:48;16.70;66.90
10062;DHT22;5070;52.382;5.270;2023-02-28T05:06:16;16.70;66.70
10062;DHT22;5070;52.382;5.270;2023-02-28T05:08:44;16.70;66.70
10062;DHT22;5070;52.382;5.270;2023-02-28T05:11:16;16.70;66.60
10062;DHT22;5070;52.382;5.270;2023-02-28T05:13:45;16.70;66.60
10062;DHT22;5070;52.382;5.270;2023-02-28T05:16:13;16.70;66.60
10062;DHT22;5070;52.382;5.270;2023-02-28T05:18:42;16.70;66.70
10062;DHT22;5070;52.382;5.270;2023-02-28T05:21:26;16.70;66.70
10062;DHT22;5070;52.382;5.270;2023-02-28T05:23:55;16.70;66.70
10062;DHT22;5070;52.382;5.270;2023-02-28T05:26:24;16.70;66.60
10062;DHT22;5070;52.382;5.270;2023-02-28T05:28:54;16.70;66.50
10062;DHT22;5070;52.382;5.270;2023-02-28T05:31:22;16.70;66.40
10062;DHT22;5070;52.382;5.270;2023-02-28T05:33:50;16.70;66.50
10062;DHT22;5070;52.382;5.270;2023-02-28T05:36:18;16.70;66.80
10062;DHT22;5070;52.382;5.270;2023-02-28T05:38:47;16.70;66.60
10062;DHT22;5070;52.382;5.270;2023-02-28T05:41:21;16.70;66.50
10062;DHT22;5070;52.382;5.270;2023-02-28T05:43:49;16.70;66.50
10062;DHT22;5070;52.382;5.270;2023-02-28T05:46:18;16.70;66.50
10062;DHT22;5070;52.382;5.270;2023-02-28T05:48:47;16.70;66.50
10062;DHT22;5070;52.382;5.270;2023-02-28T05:51:16;16.70;66.60
10062;DHT22;5070;52.382;5.270;2023-02-28T05:53:45;16.70;66.70
10062;DHT22;5070;52.382;5.270;2023-02-28T05:56:13;16.70;66.60
10062;DHT22;5070;52.382;5.270;2023-02-28T05:58:41;16.70;66.60
10062;DHT22;5070;52.382;5.270;2023-02-28T06:01:23;16.70;66.70
10062;DHT22;5070;52.382;5.270;2023-02-28T06:03:51;16.60;66.70
10062;DHT22;5070;52.382;5.270;2023-02-28T06:06:19;16.60;66.60
10062;DHT22;5070;52.382;5.270;2023-02-28T06:08:47;16.60;66.70
10062;DHT22;5070;52.382;5.270;2023-02-28T06:11:15;16.60;66.70
10062;DHT22;5070;52.382;5.270;2023-02-28T06:13:44;16.60;66.70
10062;DHT22;5070;52.382;5.270;2023-02-28T06:16:12;16.60;66.70
10062;DHT22;5070;52.382;5.270;2023-02-28T06:18:41;16.60;66.70
10062;DHT22;5070;52.382;5.270;2023-02-28T06:21:09;16.60;66.60
10062;DHT22;5070;52.382;5.270;2023-02-28T06:23:39;16.70;66.60
10062;DHT22;5070;52.382;5.270;2023-02-28T06:26:09;16.70;66.60
10062;DHT22;5070;52.382;5.270;2023-02-28T06:28:38;16.70;66.50
10062;DHT22;5070;52.382;5.270;2023-02-28T06:31:08;16.70;66.50
10062;DHT22;5070;52.382;5.270;2023-02-28T06:33:37;16.70;66.50
10062;DHT22;5070;52.382;5.270;2023-02-28T06:36:08;16.70;66.40
10062;DHT22;5070;52.382;5.270;2023-02-28T06:38:38;16.70;66.40
10062;DHT22;5070;52.382;5.270;2023-02-28T06:41:08;16.70;66.50
10062;DHT22;5070;52.382;5.270;2023-02-28T06:43:38;16.70;66.30
10062;DHT22;5070;52.382;5.270;2023-02-28T06:46:13;16.70;66.30
10062;DHT22;5070;52.382;5.270;2023-02-28T06:48:42;16.70;66.30
10062;DHT22;5070;52.382;5.270;2023-02-28T06:51:16;16.70;66.30
10062;DHT22;5070;52.382;5.270;2023-02-28T06:53:46;16.70;66.30
10062;DHT22;5070;52.382;5.270;2023-02-28T06:56:16;16.70;66.50
10062;DHT22;5070;52.382;5.270;2023-02-28T06:58:46;16.70;66.50
10062;DHT22;5070;52.382;5.270;2023-02-28T07:01:15;16.60;66.50
10062;DHT22;5070;52.382;5.270;2023-02-28T07:03:43;16.60;66.40
10062;DHT22;5070;52.382;5.270;2023-02-28T07:06:11;16.60;66.30
10062;DHT22;5070;52.382;5.270;2023-02-28T07:08:41;16.60;66.30
10062;DHT22;5070;52.382;5.270;2023-02-28T07:11:08;16.60;66.30
10062;DHT22;5070;52.382;5.270;2023-02-28T07:13:36;16.60;66.50
10062;DHT22;5070;52.382;5.270;2023-02-28T07:16:06;16.60;66.50
10062;DHT22;5070;52.382;5.270;2023-02-28T07:18:36;16.50;66.50
10062;DHT22;5070;52.382;5.270;2023-02-28T07:21:06;16.50;66.50
10062;DHT22;5070;52.382;5.270;2023-02-28T07:23:37;16.50;66.50
10062;DHT22;5070;52.382;5.270;2023-02-28T07:26:07;16.60;66.30
10062;DHT22;5070;52.382;5.270;2023-02-28T07:28:39;16.60;66.30
10062;DHT22;5070;52.382;5.270;2023-02-28T07:31:08;16.60;66.30
10062;DHT22;5070;52.382;5.270;2023-02-28T07:33:36;16.60;66.30
10062;DHT22;5070;52.382;5.270;2023-02-28T07:36:07;16.60;66.20
10062;DHT22;5070;52.382;5.270;2023-02-28T07:38:35;16.60;66.20
10062;DHT22;5070;52.382;5.270;2023-02-28T07:41:04;16.60;66.10
10062;DHT22;5070;52.382;5.270;2023-02-28T07:43:34;16.60;66.10
10062;DHT22;5070;52.382;5.270;2023-02-28T07:46:03;16.70;66.10
10062;DHT22;5070;52.382;5.270;2023-02-28T07:48:31;16.70;66.00
10062;DHT22;5070;52.382;5.270;2023-02-28T07:51:00;16.70;66.20
10062;DHT22;5070;52.382;5.270;2023-02-28T07:53:28;16.70;66.20
10062;DHT22;5070;52.382;5.270;2023-02-28T07:55:57;16.60;66.00
10062;DHT22;5070;52.382;5.270;2023-02-28T07:58:26;16.60;66.20
10062;DHT22;5070;52.382;5.270;2023-02-28T08:00:56;16.60;66.30
10062;DHT22;5070;52.382;5.270;2023-02-28T08:03:24;16.60;66.30
10062;DHT22;5070;52.382;5.270;2023-02-28T08:05:52;16.50;95.10
10062;DHT22;5070;52.382;5.270;2023-02-28T08:08:20;16.30;98.60
10062;DHT22;5070;52.382;5.270;2023-02-28T08:10:48;16.20;99.30
10062;DHT22;5070;52.382;5.270;2023-02-28T08:13:16;16.20;99.50
10062;DHT22;5070;52.382;5.270;2023-02-28T08:15:44;16.10;99.50
10062;DHT22;5070;52.382;5.270;2023-02-28T08:18:15;16.20;99.50
10062;DHT22;5070;52.382;5.270;2023-02-28T08:20:43;16.10;99.10
10062;DHT22;5070;52.382;5.270;2023-02-28T08:23:11;16.20;99.10
10062;DHT22;5070;52.382;5.270;2023-02-28T08:25:39;16.20;99.40
10062;DHT22;5070;52.382;5.270;2023-02-28T08:28:07;16.20;98.90
10062;DHT22;5070;52.382;5.270;2023-02-28T08:30:35;16.20;98.80
10062;DHT22;5070;52.382;5.270;2023-02-28T08:33:03;16.20;98.80
10062;DHT22;5070;52.382;5.270;2023-02-28T08:35:35;16.30;98.80
10062;DHT22;5070;52.382;5.270;2023-02-28T08:38:03;16.30;97.90
10062;DHT22;5070;52.382;5.270;2023-02-28T08:40:31;16.30;97.60
10062;DHT22;5070;52.382;5.270;2023-02-28T08:42:59;16.40;96.80
10062;DHT22;5070;52.382;5.270;2023-02-28T08:45:27;16.40;96.40
10062;DHT22;5070;52.382;5.270;2023-02-28T08:47:55;16.40;96.10
10062;DHT22;5070;52.382;5.270;2023-02-28T08:50:23;16.40;96.20
10062;DHT22;5070;52.382;5.270;2023-02-28T08:52:52;16.50;96.80
10062;DHT22;5070;52.382;5.270;2023-02-28T08:55:20;16.50;96.20
10062;DHT22;5070;52.382;5.270;2023-02-28T08:57:48;16.50;96.40
10062;DHT22;5070;52.382;5.270;2023-02-28T09:00:17;16.50;96.90
10062;DHT22;5070;52.382;5.270;2023-02-28T09:02:45;16.60;95.60
10062;DHT22;5070;52.382;5.270;2023-02-28T09:05:13;16.60;96.00
10062;DHT22;5070;52.382;5.270;2023-02-28T09:07:41;16.60;96.00
10062;DHT22;5070;52.382;5.270;2023-02-28T09:10:20;16.60;96.20
10062;DHT22;5070;52.382;5.270;2023-02-28T09:12:48;16.60;96.10
10062;DHT22;5070;52.382;5.270;2023-02-28T09:15:17;16.70;96.00
10062;DHT22;5070;52.382;5.270;2023-02-28T09:17:48;16.70;96.20
10062;DHT22;5070;52.382;5.270;2023-02-28T09:20:16;16.70;96.50
10062;DHT22;5070;52.382;5.270;2023-02-28T09:22:44;16.70;95.90
10062;DHT22;5070;52.382;5.270;2023-02-28T09:25:14;16.70;95.70
10062;DHT22;5070;52.382;5.270;2023-02-28T09:27:42;16.70;95.70
10062;DHT22;5070;52.382;5.270;2023-02-28T09:30:11;16.70;95.70
10062;DHT22;5070;52.382;5.270;2023-02-28T09:32:39;16.70;95.40
10062;DHT22;5070;52.382;5.270;2023-02-28T09:35:08;16.70;95.10
10062;DHT22;5070;52.382;5.270;2023-02-28T09:37:39;16.70;95.20
10062;DHT22;5070;52.382;5.270;2023-02-28T09:40:09;16.70;95.10
10062;DHT22;5070;52.382;5.270;2023-02-28T09:42:39;16.70;93.90
10062;DHT22;5070;52.382;5.270;2023-02-28T09:45:23;16.70;93.80
10062;DHT22;5070;52.382;5.270;2023-02-28T09:47:54;16.70;92.90
10062;DHT22;5070;52.382;5.270;2023-02-28T09:50:30;16.70;92.90
10062;DHT22;5070;52.382;5.270;2023-02-28T09:53:03;16.70;92.20
10062;DHT22;5070;52.382;5.270;2023-02-28T09:55:37;16.70;91.30
10062;DHT22;5070;52.382;5.270;2023-02-28T09:58:19;16.80;91.40
10062;DHT22;5070;52.382;5.270;2023-02-28T10:00:56;16.80;90.80
10062;DHT22;5070;52.382;5.270;2023-02-28T10:03:30;16.80;90.60
10062;DHT22;5070;52.382;5.270;2023-02-28T10:06:07;16.80;88.50
10062;DHT22;5070;52.382;5.270;2023-02-28T10:08:38;16.80;89.60
10062;DHT22;5070;52.382;5.270;2023-02-28T10:11:15;16.80;90.10
10062;DHT22;5070;52.382;5.270;2023-02-28T10:13:51;16.80;90.40
10062;DHT22;5070;52.382;5.270;2023-02-28T10:16:25;16.80;88.50
10062;DHT22;5070;52.382;5.270;2023-02-28T10:18:57;16.80;90.30
10062;DHT22;5070;52.382;5.270;2023-02-28T10:21:29;16.80;90.20
10062;DHT22;5070;52.382;5.270;2023-02-28T10:24:03;16.80;90.40
10062;DHT22;5070;52.382;5.270;2023-02-28T10:26:32;16.80;90.20
10062;DHT22;5070;52.382;5.270;2023-02-28T10:29:03;16.80;88.90
10062;DHT22;5070;52.382;5.270;2023-02-28T10:31:30;16.80;90.00
10062;DHT22;5070;52.382;5.270;2023-02-28T10:33:58;16.80;89.90
10062;DHT22;5070;52.382;5.270;2023-02-28T10:36:26;16.80;90.00
10062;DHT22;5070;52.382;5.270;2023-02-28T10:38:55;16.80;88.80
10062;DHT22;5070;52.382;5.270;2023-02-28T10:41:28;16.80;89.30
10062;DHT22;5070;52.382;5.270;2023-02-28T10:44:20;16.80;88.90
10062;DHT22;5070;52.382;5.270;2023-02-28T10:46:50;16.90;88.10
10062;DHT22;5070;52.382;5.270;2023-02-28T10:49:21;16.80;89.00
10062;DHT22;5070;52.382;5.270;2023-02-28T10:51:52;16.80;88.30
10062;DHT22;5070;52.382;5.270;2023-02-28T10:54:27;16.80;87.90
10062;DHT22;5070;52.382;5.270;2023-02-28T10:57:14;16.80;87.10
10062;DHT22;5070;52.382;5.270;2023-02-28T10:59:44;16.90;86.50
10062;DHT22;5070;52.382;5.270;2023-02-28T11:02:33;16.80;86.50
10062;DHT22;5070;52.382;5.270;2023-02-28T11:05:02;16.80;86.10
10062;DHT22;5070;52.382;5.270;2023-02-28T11:07:30;16.80;87.20
10062;DHT22;5070;52.382;5.270;2023-02-28T11:10:18;16.80;85.80
10062;DHT22;5070;52.382;5.270;2023-02-28T11:12:47;16.80;86.60
10062;DHT22;5070;52.382;5.270;2023-02-28T11:15:23;16.90;86.30
10062;DHT22;5070;52.382;5.270;2023-02-28T11:17:57;16.90;85.10
10062;DHT22;5070;52.382;5.270;2023-02-28T11:20:28;16.90;86.40
10062;DHT22;5070;52.382;5.270;2023-02-28T11:22:59;16.90;85.90
10062;DHT22;5070;52.382;5.270;2023-02-28T11:25:31;16.80;85.50
10062;DHT22;5070;52.382;5.270;2023-02-28T11:28:01;16.90;85.70
10062;DHT22;5070;52.382;5.270;2023-02-28T11:30:35;16.90;84.10
10062;DHT22;5070;52.382;5.270;2023-02-28T11:33:21;16.90;84.00
10062;DHT22;5070;52.382;5.270;2023-02-28T11:35:51;16.90;84.00
10062;DHT22;5070;52.382;5.270;2023-02-28T11:38:19;16.90;83.60
10062;DHT22;5070;52.382;5.270;2023-02-28T11:40:51;16.90;83.70
10062;DHT22;5070;52.382;5.270;2023-02-28T11:43:34;16.90;82.90
10062;DHT22;5070;52.382;5.270;2023-02-28T11:46:18;17.00;81.90
10062;DHT22;5070;52.382;5.270;2023-02-28T11:48:58;17.00;81.90
10062;DHT22;5070;52.382;5.270;2023-02-28T11:51:33;17.00;81.20
10062;DHT22;5070;52.382;5.270;2023-02-28T11:54:21;17.00;80.80
10062;DHT22;5070;52.382;5.270;2023-02-28T11:56:57;17.00;80.50
10062;DHT22;5070;52.382;5.270;2023-02-28T11:59:42;17.00;80.80
10062;DHT22;5070;52.382;5.270;2023-02-28T12:02:26;17.10;80.40
10062;DHT22;5070;52.382;5.270;2023-02-28T12:05:10;17.10;79.80
10062;DHT22;5070;52.382;5.270;2023-02-28T12:07:51;17.10;80.10
10062;DHT22;5070;52.382;5.270;2023-02-28T12:10:26;17.10;80.20
10062;DHT22;5070;52.382;5.270;2023-02-28T12:13:07;17.10;79.70
10062;DHT22;5070;52.382;5.270;2023-02-28T12:15:56;17.10;79.70
10062;DHT22;5070;52.382;5.270;2023-02-28T12:18:47;17.20;79.50
10062;DHT22;5070;52.382;5.270;2023-02-28T12:21:24;17.20;79.30
10062;DHT22;5070;52.382;5.270;2023-02-28T12:24:07;17.20;79.30
10062;DHT22;5070;52.382;5.270;2023-02-28T12:26:43;17.20;79.00
10062;DHT22;5070;52.382;5.270;2023-02-28T12:29:16;17.20;79.40
10062;DHT22;5070;52.382;5.270;2023-02-28T12:31:49;17.30;78.90
10062;DHT22;5070;52.382;5.270;2023-02-28T12:34:22;17.20;78.10
10062;DHT22;5070;52.382;5.270;2023-02-28T12:36:51;17.30;77.40
10062;DHT22;5070;52.382;5.270;2023-02-28T12:39:23;17.30;78.30
10062;DHT22;5070;52.382;5.270;2023-02-28T12:42:01;17.30;77.30
10062;DHT22;5070;52.382;5.270;2023-02-28T12:44:34;17.30;76.80
10062;DHT22;5070;52.382;5.270;2023-02-28T12:47:08;17.30;76.50
10062;DHT22;5070;52.382;5.270;2023-02-28T12:49:43;17.30;77.10
10062;DHT22;5070;52.382;5.270;2023-02-28T12:52:24;17.40;76.50
10062;DHT22;5070;52.382;5.270;2023-02-28T12:55:00;17.40;76.20
10062;DHT22;5070;52.382;5.270;2023-02-28T12:57:35;17.40;75.10
10062;DHT22;5070;52.382;5.270;2023-02-28T13:00:10;17.40;75.60
10062;DHT22;5070;52.382;5.270;2023-02-28T13:06:09;17.40;75.10
10062;DHT22;5070;52.382;5.270;2023-02-28T13:09:04;17.40;75.30
10062;DHT22;5070;52.382;5.270;2023-02-28T13:11:39;17.40;74.90
10062;DHT22;5070;52.382;5.270;2023-02-28T13:14:20;17.50;75.00
10062;DHT22;5070;52.382;5.270;2023-02-28T13:17:10;17.50;74.90
10062;DHT22;5070;52.382;5.270;2023-02-28T13:19:40;17.50;74.80
10062;DHT22;5070;52.382;5.270;2023-02-28T13:22:18;17.50;74.80
10062;DHT22;5070;52.382;5.270;2023-02-28T13:24:49;17.50;74.60
10062;DHT22;5070;52.382;5.270;2023-02-28T13:27:34;17.50;74.70
10062;DHT22;5070;52.382;5.270;2023-02-28T13:33:23;17.50;74.60
10062;DHT22;5070;52.382;5.270;2023-02-28T13:36:10;17.60;74.70
10062;DHT22;5070;52.382;5.270;2023-02-28T13:38:41;17.60;74.70
10062;DHT22;5070;52.382;5.270;2023-02-28T13:41:42;17.60;74.70
10062;DHT22;5070;52.382;5.270;2023-02-28T13:44:11;17.60;74.70
10062;DHT22;5070;52.382;5.270;2023-02-28T13:50:24;17.60;74.70
10062;DHT22;5070;52.382;5.270;2023-02-28T13:55:54;17.60;74.80
10062;DHT22;5070;52.382;5.270;2023-02-28T13:58:43;17.60;74.80
10062;DHT22;5070;52.382;5.270;2023-02-28T14:01:32;17.60;74.90
10062;DHT22;5070;52.382;5.270;2023-02-28T14:06:59;17.70;75.00
10062;DHT22;5070;52.382;5.270;2023-02-28T14:09:30;17.70;75.10
10062;DHT22;5070;52.382;5.270;2023-02-28T14:12:52;17.70;75.30
10062;DHT22;5070;52.382;5.270;2023-02-28T14:15:43;17.70;75.00
10062;DHT22;5070;52.382;5.270;2023-02-28T14:18:20;17.70;75.00
10062;DHT22;5070;52.382;5.270;2023-02-28T14:21:10;17.70;75.10
10062;DHT22;5070;52.382;5.270;2023-02-28T14:24:00;17.70;75.10
10062;DHT22;5070;52.382;5.270;2023-02-28T14:27:00;17.70;75.10
10062;DHT22;5070;52.382;5.270;2023-02-28T14:29:55;17.70;75.20
10062;DHT22;5070;52.382;5.270;2023-02-28T14:32:30;17.80;75.20
10062;DHT22;5070;52.382;5.270;2023-02-28T14:35:09;17.80;75.30
10062;DHT22;5070;52.382;5.270;2023-02-28T14:37:41;17.80;75.20
10062;DHT22;5070;52.382;5.270;2023-02-28T14:40:14;17.80;75.30
10062;DHT22;5070;52.382;5.270;2023-02-28T14:42:48;17.80;75.30
10062;DHT22;5070;52.382;5.270;2023-02-28T14:45:23;17.80;75.30
10062;DHT22;5070;52.382;5.270;2023-02-28T14:47:52;17.80;75.30
10062;DHT22;5070;52.382;5.270;2023-02-28T14:50:21;17.80;75.30
10062;DHT22;5070;52.382;5.270;2023-02-28T14:52:52;17.80;75.20
10062;DHT22;5070;52.382;5.270;2023-02-28T14:55:26;17.80;75.30
10062;DHT22;5070;52.382;5.270;2023-02-28T14:57:57;17.80;75.30
10062;DHT22;5070;52.382;5.270;2023-02-28T15:00:28;17.80;75.20
10062;DHT22;5070;52.382;5.270;2023-02-28T15:02:58;17.90;75.30
10062;DHT22;5070;52.382;5.270;2023-02-28T15:05:28;17.90;75.30
10062;DHT22;5070;52.382;5.270;2023-02-28T15:08:09;17.90;75.30
10062;DHT22;5070;52.382;5.270;2023-02-28T15:10:39;17.90;75.20
10062;DHT22;5070;52.382;5.270;2023-02-28T15:13:12;17.90;75.10
10062;DHT22;5070;52.382;5.270;2023-02-28T15:15:49;17.90;75.20
10062;DHT22;5070;52.382;5.270;2023-02-28T15:18:32;17.90;75.10
10062;DHT22;5070;52.382;5.270;2023-02-28T15:21:07;17.90;75.80
10062;DHT22;5070;52.382;5.270;2023-02-28T15:23:36;17.90;75.10
10062;DHT22;5070;52.382;5.270;2023-02-28T15:26:05;17.90;75.20
10062;DHT22;5070;52.382;5.270;2023-02-28T15:28:33;17.90;74.90
10062;DHT22;5070;52.382;5.270;2023-02-28T15:31:19;17.90;74.90
10062;DHT22;5070;52.382;5.270;2023-02-28T15:33:54;17.90;74.60
10062;DHT22;5070;52.382;5.270;2023-02-28T15:36:28;17.90;74.80
10062;DHT22;5070;52.382;5.270;2023-02-28T15:38:57;17.90;74.90
10062;DHT22;5070;52.382;5.270;2023-02-28T15:41:41;17.90;74.90
10062;DHT22;5070;52.382;5.270;2023-02-28T15:44:18;17.90;74.90
10062;DHT22;5070;52.382;5.270;2023-02-28T15:46:58;17.90;75.00
10062;DHT22;5070;52.382;5.270;2023-02-28T15:49:29;17.90;75.00
10062;DHT22;5070;52.382;5.270;2023-02-28T15:52:13;17.90;75.00
10062;DHT22;5070;52.382;5.270;2023-02-28T15:54:41;17.90;74.60
10062;DHT22;5070;52.382;5.270;2023-02-28T15:57:14;17.90;74.30
10062;DHT22;5070;52.382;5.270;2023-02-28T15:59:49;17.90;74.30
10062;DHT22;5070;52.382;5.270;2023-02-28T16:02:21;17.90;73.80
10062;DHT22;5070;52.382;5.270;2023-02-28T16:04:57;17.90;73.80
10062;DHT22;5070;52.382;5.270;2023-02-28T16:07:26;17.90;73.00
10062;DHT22;5070;52.382;5.270;2023-02-28T16:09:55;17.90;72.10
10062;DHT22;5070;52.382;5.270;2023-02-28T16:12:26;17.90;72.20
10062;DHT22;5070;52.382;5.270;2023-02-28T16:14:56;17.90;72.40
10062;DHT22;5070;52.382;5.270;2023-02-28T16:17:27;17.90;72.50
10062;DHT22;5070;52.382;5.270;2023-02-28T16:19:56;17.90;72.80
10062;DHT22;5070;52.382;5.270;2023-02-28T16:22:26;17.90;71.80
10062;DHT22;5070;52.382;5.270;2023-02-28T16:24:54;17.90;72.40
10062;DHT22;5070;52.382;5.270;2023-02-28T16:27:30;17.90;72.10
10062;DHT22;5070;52.382;5.270;2023-02-28T16:29:58;17.80;71.50
10062;DHT22;5070;52.382;5.270;2023-02-28T16:32:29;17.80;71.60
10062;DHT22;5070;52.382;5.270;2023-02-28T16:34:57;17.80;71.30
10062;DHT22;5070;52.382;5.270;2023-02-28T16:37:27;17.80;71.20